Список аэропортов
Фактическая погода:

21 апреля, 19:30
Температура: +10°C (+7.2*)
Ветер: северный 6 м/с
Давление: *766 мм
Без существ. явл.
Время (МСК)Темп. СВетерВлажностьДавлениеОблачностьОсадки
15:00+13С, 3 м/с53%1022 гПамалооблачно
16:00+13С, 4 м/с52%1022 гПаясно
17:00+12С, 5 м/с52%1022 гПаясно
18:00+12С, 5 м/с52%1021 гПаясно
19:00+11С, 4 м/с56%1021 гПаясно
20:00+9С, 4 м/с62%1021 гПаясно
21:00+8С, 4 м/с69%1022 гПаясно
22:00+7С, 3 м/с79%1022 гПас прояснениями
23:00+6СЗ, 2 м/с89%1022 гПамалооблачно
22 апреля
00:00+6СЗ, 2 м/с95%1022 гПаясно
01:00+6С, 2 м/с93%1022 гПаясно
02:00+6С, 2 м/с95%1022 гПаясно
03:00+5С, 2 м/с96%1022 гПаясно
04:00+5С, 2 м/с95%1022 гПаясно
05:00+4СВ, 2 м/с95%1023 гПаясно
06:00+4СВ, 2 м/с96%1023 гПаясно
07:00+4В, 2 м/с96%1024 гПамалооблачно
08:00+6В, 3 м/с92%1024 гПамалооблачно
09:00+8В, 3 м/с84%1025 гПас прояснениями
10:00+10В, 3 м/с73%1025 гПас прояснениями
11:00+13В, 3 м/с64%1025 гПас прояснениями
12:00+15В, 4 м/с58%1025 гПас прояснениями
13:00+17ЮВ, 4 м/с51%1025 гПас прояснениями
14:00+18ЮВ, 4 м/с47%1026 гПамалооблачно
15:00+19ЮВ, 5 м/с44%1025 гПаясно
16:00+19ЮВ, 5 м/с42%1025 гПаясно
17:00+19ЮВ, 5 м/с41%1025 гПамалооблачно
18:00+19ЮВ, 4 м/с42%1025 гПамалооблачно
19:00+18В, 4 м/с44%1025 гПаясно
20:00+17В, 3 м/с48%1025 гПаясно
21:00+14В, 2 м/с58%1026 гПаясно
22:00+12В, 2 м/с69%1026 гПаясно
23:00+11В, 2 м/с76%1027 гПаясно
23 апреля
00:00+10В, 3 м/с75%1027 гПаясно
01:00+9ЮВ, 3 м/с74%1027 гПаясно
02:00+8ЮВ, 2 м/с74%1027 гПаясно
03:00+7В, 2 м/с76%1027 гПаясно
04:00+6В, 2 м/с80%1027 гПаясно
05:00+5ЮВ, 2 м/с85%1028 гПаясно
06:00+4ЮВ, 2 м/с89%1028 гПаясно
07:00+4ЮВ, 2 м/с91%1028 гПаясно
08:00+6ЮВ, 2 м/с80%1028 гПаясно
09:00+9В, 2 м/с63%1028 гПаясно
10:00+13В, 3 м/с50%1029 гПаясно
11:00+16В, 4 м/с42%1028 гПаясно
12:00+18В, 5 м/с33%1028 гПаясно
13:00+18ЮВ, 7 м/с28%1028 гПаясно
14:00+19ЮВ, 7 м/с26%1027 гПаясно
15:00+19ЮВ, 7 м/с26%1027 гПаясно